ICT,Max TemperatureF,Mean TemperatureF,Min TemperatureF,Max Dew PointF,MeanDew PointF,Min DewpointF,Max Humidity, Mean Humidity, Min Humidity, Max Sea Level PressureIn, Mean Sea Level PressureIn, Min Sea Level PressureIn, Max VisibilityMiles, Mean VisibilityMiles, Min VisibilityMiles, Max Wind SpeedMPH, Mean Wind SpeedMPH, Max Gust SpeedMPH,PrecipitationIn, CloudCover, Events, WindDirDegrees
2013-10-1,91,86,80,77,76,75,89,74,62,29.86,29.76,29.68,6,6,6,17,8,,0.00,6,,301
2013-10-2,89,83,77,79,78,75,94,79,66,29.89,29.85,29.77,6,5,5,15,4,,0.00,6,,301
2013-10-3,91,86,80,77,76,73,84,74,62,29.92,29.86,29.80,6,6,5,15,9,,0.00,6,,299
2013-10-4,86,82,78,77,75,73,89,80,74,29.92,29.83,29.77,6,6,5,17,12,,0.00,6,Rain,282
2013-10-5,84,81,78,75,75,73,89,81,74,29.86,29.80,29.74,6,6,4,17,16,,0.00,6,Rain,285
2013-10-6,84,81,78,75,75,73,89,82,70,29.83,29.78,29.71,6,6,4,23,16,,0.00,6,Rain,282
2013-10-7,89,84,78,75,73,72,83,74,59,29.83,29.79,29.74,6,6,4,15,9,,0.00,6,Rain,265
2013-10-8,89,84,78,77,74,72,83,72,59,29.89,29.83,29.77,6,6,6,17,8,,0.00,6,,259
2013-10-9,89,84,78,77,75,73,84,74,62,29.92,29.87,29.83,6,6,5,15,7,,0.00,6,,293
2013-10-10,89,83,77,77,77,73,94,77,66,29.95,29.88,29.83,6,6,6,15,7,,0.00,5,,312
2013-10-11,91,86,80,77,77,75,84,72,63,29.92,29.84,29.77,6,6,6,18,9,,0.00,5,,312
2013-10-12,91,86,80,81,77,75,84,76,66,29.86,29.82,29.74,6,6,6,18,13,,0.00,5,,305
2013-10-13,89,84,80,77,76,75,84,77,66,29.89,29.82,29.77,6,5,5,17,12,,0.00,6,,301
2013-10-14,91,86,80,79,76,73,84,71,62,29.86,29.80,29.71,6,6,5,15,12,,0.00,6,,305
2013-10-15,93,86,80,79,77,75,89,72,59,29.83,29.79,29.74,6,6,6,18,14,,0.00,6,,305
2013-10-16,93,86,80,77,76,75,84,73,59,29.86,29.79,29.71,6,6,6,14,6,,0.00,6,Thunderstorm,268
2013-10-17,91,86,80,79,78,77,89,76,66,29.89,29.82,29.77,6,6,6,12,5,,0.00,6,,146
2013-10-18,89,83,77,79,78,75,94,81,70,29.92,29.86,29.77,6,6,4,12,4,,0.00,6,Rain-Thunderstorm,157
2013-10-19,84,81,78,81,78,75,100,92,84,29.95,29.89,29.83,6,5,3,9,2,,0.00,6,Rain,329
2013-10-20,87,82,77,79,77,75,100,87,75,29.95,29.87,29.80,6,5,1,9,1,,0.00,6,Rain,15
2013-10-21,84,80,77,79,77,75,94,86,74,29.89,29.84,29.80,6,6,4,9,3,,0.00,6,Rain-Thunderstorm,173
2013-10-22,86,82,77,79,77,75,94,83,74,29.92,29.87,29.80,6,6,1,12,4,,0.00,6,Rain-Thunderstorm,144
2013-10-23,86,80,75,79,76,73,94,85,74,29.95,29.88,29.83,6,6,1,10,6,,0.00,6,Rain-Thunderstorm,129
2013-10-24,87,82,77,77,76,73,94,80,70,29.95,29.87,29.80,6,6,3,13,5,,0.00,6,Rain,143
2013-10-25,87,84,80,79,77,75,84,78,74,29.95,29.88,29.83,6,6,4,21,10,,0.00,6,Rain,148
2013-10-26,82,80,77,77,76,73,94,91,79,29.98,29.90,29.86,6,5,2,17,5,,0.00,6,Rain,145
2013-10-27,86,82,77,79,76,75,94,86,79,29.95,29.89,29.83,6,4,1,17,6,29,0.00,6,Rain,144
2013-10-28,80,78,77,77,76,75,100,92,89,29.98,29.91,29.83,6,4,2,12,1,,0.00,6,Rain-Thunderstorm,140
2013-10-29,87,82,77,79,78,77,100,85,75,29.95,29.89,29.83,6,5,2,17,6,,0.00,6,Rain,168
2013-10-30,87,82,78,79,77,75,94,80,70,29.98,29.90,29.83,6,5,4,12,4,,0.00,6,,104
2013-10-31,89,84,80,79,78,75,89,78,70,29.95,29.89,29.83,5,5,4,12,5,,0.00,6,,71